createdAt,value
2018-11-21T00:01:37.165Z,2.00
2018-11-21T00:04:05.651Z,2.00
2018-11-21T00:06:34.174Z,1.90
2018-11-21T00:09:02.694Z,2.00
2018-11-21T00:11:31.233Z,2.00
2018-11-21T00:13:59.727Z,1.90
2018-11-21T00:16:28.281Z,1.90
2018-11-21T00:19:00.652Z,2.00
2018-11-21T00:21:25.330Z,2.00
2018-11-21T00:23:54.040Z,2.00
2018-11-21T00:26:22.621Z,1.90
2018-11-21T00:28:51.161Z,1.90
2018-11-21T00:31:19.675Z,1.80
2018-11-21T00:33:48.231Z,1.80
2018-11-21T00:36:17.015Z,1.80
2018-11-21T00:38:45.543Z,1.80
2018-11-21T00:41:14.164Z,1.80
2018-11-21T00:43:42.741Z,1.80
2018-11-21T00:46:12.053Z,1.80
2018-11-21T00:48:40.661Z,1.90
2018-11-21T00:51:09.531Z,1.80
2018-11-21T00:53:38.115Z,1.80
2018-11-21T00:56:07.563Z,1.70
2018-11-21T00:58:36.102Z,1.70
2018-11-21T01:01:05.222Z,1.60
2018-11-21T01:03:33.793Z,1.60
2018-11-21T01:06:02.335Z,1.60
2018-11-21T01:08:31.733Z,1.60
2018-11-21T01:11:00.351Z,1.60
2018-11-21T01:13:28.938Z,1.60
2018-11-21T01:15:58.081Z,1.60
2018-11-21T01:18:26.665Z,1.60
2018-11-21T01:20:55.259Z,1.50
2018-11-21T01:23:23.779Z,1.40
2018-11-21T01:25:52.325Z,1.30
2018-11-21T01:28:20.869Z,1.30
2018-11-21T01:30:49.473Z,1.20
2018-11-21T01:33:18.119Z,1.20
2018-11-21T01:35:46.641Z,1.20
2018-11-21T01:38:15.203Z,1.20
2018-11-21T01:40:43.757Z,1.10
2018-11-21T01:43:14.525Z,1.00
2018-11-21T01:45:43.059Z,1.10
2018-11-21T01:48:12.011Z,1.00
2018-11-21T01:50:40.542Z,1.10
2018-11-21T01:53:09.084Z,1.10
2018-11-21T01:55:37.660Z,1.10
2018-11-21T01:58:06.169Z,1.20
2018-11-21T02:00:34.697Z,1.20
2018-11-21T02:03:04.173Z,1.30
2018-11-21T02:05:31.771Z,1.30
2018-11-21T02:08:00.295Z,1.40
2018-11-21T02:10:30.829Z,1.30
2018-11-21T02:12:59.261Z,1.30
2018-11-21T02:15:27.811Z,1.30
2018-11-21T02:17:56.259Z,1.40
2018-11-21T02:20:24.795Z,1.50
2018-11-21T02:22:53.461Z,1.50
2018-11-21T02:25:21.974Z,1.60
2018-11-21T02:27:51.935Z,1.60
2018-11-21T02:30:19.020Z,1.70
2018-11-21T02:32:47.609Z,1.70
2018-11-21T02:35:16.111Z,1.80
2018-11-21T02:37:44.675Z,1.80
2018-11-21T02:40:14.025Z,1.80
2018-11-21T02:42:42.814Z,1.80
2018-11-21T02:45:11.311Z,1.80
2018-11-21T02:47:39.825Z,1.70
2018-11-21T02:50:08.374Z,1.70
2018-11-21T02:52:37.027Z,1.70
2018-11-21T02:55:05.933Z,1.60
2018-11-21T02:57:35.355Z,1.60
2018-11-21T03:00:18.820Z,1.60
2018-11-21T03:02:47.357Z,1.50
2018-11-21T03:05:15.879Z,1.40
2018-11-21T03:08:09.737Z,1.30
2018-11-21T03:10:38.313Z,1.30
2018-11-21T03:13:06.801Z,1.20
2018-11-21T03:15:35.298Z,1.20
2018-11-21T03:18:03.830Z,1.20
2018-11-21T03:20:32.312Z,1.20
2018-11-21T03:23:00.816Z,1.20
2018-11-21T03:25:29.967Z,1.30
2018-11-21T03:27:58.451Z,1.40
2018-11-21T03:30:27.006Z,1.40
2018-11-21T03:32:55.608Z,1.50
2018-11-21T03:35:24.176Z,1.60
2018-11-21T03:37:52.739Z,1.60
2018-11-21T03:40:21.259Z,1.60
2018-11-21T03:42:49.796Z,1.60
2018-11-21T03:45:20.813Z,1.60
2018-11-21T03:47:49.422Z,1.60
2018-11-21T03:50:17.932Z,1.60
2018-11-21T03:52:46.485Z,1.60
2018-11-21T03:55:15.059Z,1.60
2018-11-21T03:57:43.613Z,1.60
2018-11-21T04:00:13.565Z,1.60
2018-11-21T04:02:42.467Z,1.60
2018-11-21T04:05:11.354Z,1.50
2018-11-21T04:07:39.883Z,1.50
2018-11-21T04:10:10.758Z,1.50
2018-11-21T04:12:39.559Z,1.40
2018-11-21T04:15:10.571Z,1.40
2018-11-21T04:17:39.120Z,1.40
2018-11-21T04:20:08.156Z,1.40
2018-11-21T04:22:36.976Z,1.40
2018-11-21T04:25:06.643Z,1.50
2018-11-21T04:27:35.287Z,1.40
2018-11-21T04:30:03.981Z,1.40
2018-11-21T04:32:32.568Z,1.40
2018-11-21T04:35:01.140Z,1.30
2018-11-21T04:37:29.705Z,1.30
2018-11-21T04:39:58.813Z,1.30
2018-11-21T04:42:27.331Z,1.30
2018-11-21T04:44:55.902Z,1.30
2018-11-21T04:47:24.503Z,1.30
2018-11-21T04:49:53.055Z,1.30
2018-11-21T04:52:21.600Z,1.30
2018-11-21T04:54:50.109Z,1.30
2018-11-21T04:57:18.760Z,1.30
2018-11-21T04:59:47.362Z,1.30
2018-11-21T05:02:16.005Z,1.30
2018-11-21T05:04:44.535Z,1.30
2018-11-21T05:07:13.077Z,1.40
2018-11-21T05:09:41.678Z,1.30
2018-11-21T05:12:10.274Z,1.30
2018-11-21T05:14:38.834Z,1.30
2018-11-21T05:17:07.442Z,1.30
2018-11-21T05:19:36.093Z,1.30
2018-11-21T05:22:04.601Z,1.30
2018-11-21T05:24:33.204Z,1.30
2018-11-21T05:27:01.808Z,1.20
2018-11-21T05:29:30.349Z,1.20
2018-11-21T05:31:58.909Z,1.20
2018-11-21T05:34:27.551Z,1.10
2018-11-21T05:36:56.195Z,1.10
2018-11-21T05:39:24.693Z,1.00
2018-11-21T05:41:53.275Z,1.00
2018-11-21T05:44:21.791Z,0.90
2018-11-21T05:46:53.583Z,0.90
2018-11-21T05:49:18.941Z,0.80
2018-11-21T05:51:47.476Z,0.80
2018-11-21T05:54:16.014Z,0.70
2018-11-21T05:56:44.536Z,0.70
2018-11-21T05:59:13.113Z,0.70
2018-11-21T06:01:41.610Z,0.70
2018-11-21T06:04:10.116Z,0.80
2018-11-21T06:06:38.619Z,0.80
2018-11-21T06:09:10.798Z,0.80
2018-11-21T06:11:40.688Z,0.80
2018-11-21T06:14:09.165Z,0.80
2018-11-21T06:16:37.880Z,0.90
2018-11-21T06:19:06.810Z,0.90
2018-11-21T06:21:35.334Z,0.90
2018-11-21T06:24:03.930Z,0.80
2018-11-21T06:26:32.529Z,0.70
2018-11-21T06:29:01.049Z,0.60
2018-11-21T06:31:29.563Z,0.60
2018-11-21T06:33:58.168Z,0.50
2018-11-21T06:36:26.666Z,0.50
2018-11-21T06:38:55.176Z,0.40
2018-11-21T06:41:23.768Z,0.40
2018-11-21T06:43:52.286Z,0.40
2018-11-21T06:46:20.822Z,0.40
2018-11-21T06:48:49.334Z,0.40
2018-11-21T06:51:20.608Z,0.40
2018-11-21T06:53:49.126Z,0.50
2018-11-21T06:56:17.662Z,0.60
2018-11-21T06:58:46.130Z,0.60
2018-11-21T07:01:14.680Z,0.60
2018-11-21T07:03:43.168Z,0.70
2018-11-21T07:06:11.667Z,0.70
2018-11-21T07:08:40.228Z,0.80
2018-11-21T07:11:08.760Z,0.80
2018-11-21T07:13:37.298Z,0.80
2018-11-21T07:16:05.838Z,0.80
2018-11-21T07:18:34.365Z,0.80
2018-11-21T07:21:05.868Z,0.80
2018-11-21T07:23:34.386Z,0.90
2018-11-21T07:26:02.906Z,0.90
2018-11-21T07:28:31.478Z,0.90
2018-11-21T07:31:00.549Z,0.90
2018-11-21T07:33:29.157Z,0.90
2018-11-21T07:35:57.728Z,1.00
2018-11-21T07:38:26.330Z,1.00
2018-11-21T07:40:54.952Z,1.10
2018-11-21T07:43:23.422Z,1.10
2018-11-21T07:45:52.012Z,1.20
2018-11-21T07:48:20.693Z,1.20
2018-11-21T07:50:49.227Z,1.20
2018-11-21T07:53:17.759Z,1.20
2018-11-21T07:55:46.321Z,1.20
2018-11-21T07:58:16.940Z,1.20
2018-11-21T08:01:04.461Z,1.20
2018-11-21T08:03:37.900Z,1.20
2018-11-21T08:06:15.629Z,1.20
2018-11-21T08:09:12.357Z,1.20
2018-11-21T08:11:59.052Z,1.20
2018-11-21T08:14:46.702Z,1.30
2018-11-21T08:17:34.466Z,1.30
2018-11-21T08:20:30.868Z,1.40
2018-11-21T08:23:18.383Z,1.50
2018-11-21T08:26:10.001Z,1.60
2018-11-21T08:28:38.533Z,1.60
2018-11-21T08:31:07.112Z,1.70
2018-11-21T08:33:35.669Z,1.70
2018-11-21T08:36:04.509Z,1.80
2018-11-21T08:38:33.046Z,1.90
2018-11-21T08:41:01.573Z,2.00
2018-11-21T08:43:31.184Z,2.20
2018-11-21T08:45:59.821Z,2.20
2018-11-21T08:48:28.275Z,2.20
2018-11-21T08:50:56.803Z,2.30
2018-11-21T08:53:25.336Z,2.30
2018-11-21T08:55:53.881Z,2.40
2018-11-21T08:58:22.468Z,2.50
2018-11-21T09:00:51.043Z,2.60
2018-11-21T09:03:19.627Z,2.70
2018-11-21T09:05:48.195Z,2.70
2018-11-21T09:08:16.871Z,2.80
2018-11-21T09:10:45.879Z,2.80
2018-11-21T09:13:13.923Z,3.00
2018-11-21T09:15:42.465Z,3.20
2018-11-21T09:18:10.957Z,3.30
2018-11-21T09:20:39.473Z,3.30
2018-11-21T09:23:07.963Z,3.30
2018-11-21T09:25:36.473Z,3.20
2018-11-21T09:28:05.336Z,3.20
2018-11-21T09:30:33.862Z,3.20
2018-11-21T09:33:02.430Z,3.30
2018-11-21T09:35:31.391Z,3.40
2018-11-21T09:37:59.907Z,3.60
2018-11-21T09:40:28.482Z,3.70
2018-11-21T09:42:57.292Z,3.80
2018-11-21T09:45:26.263Z,3.90
2018-11-21T09:47:54.812Z,3.90
2018-11-21T09:50:25.059Z,3.80
2018-11-21T09:52:53.604Z,3.70
2018-11-21T09:55:22.104Z,3.60
2018-11-21T09:57:50.673Z,3.60
2018-11-21T10:00:55.831Z,3.60
2018-11-21T10:03:26.787Z,3.50
2018-11-21T10:06:01.055Z,3.40
2018-11-21T10:09:00.139Z,3.40
2018-11-21T10:11:29.422Z,3.30
2018-11-21T10:13:57.998Z,3.20
2018-11-21T10:16:26.540Z,3.20
2018-11-21T10:18:56.452Z,3.20
2018-11-21T10:21:29.468Z,3.20
2018-11-21T10:23:58.365Z,3.20
2018-11-21T10:26:26.981Z,3.30
2018-11-21T10:28:55.942Z,3.30
2018-11-21T10:31:24.490Z,3.40
2018-11-21T10:33:52.981Z,3.50
2018-11-21T10:36:21.565Z,3.50
2018-11-21T10:38:50.607Z,3.50
2018-11-21T10:41:19.134Z,3.60
2018-11-21T10:43:47.645Z,3.60
2018-11-21T10:46:16.322Z,3.60
2018-11-21T10:48:44.890Z,3.50
2018-11-21T10:51:14.551Z,3.60
2018-11-21T10:53:42.103Z,3.60
2018-11-21T10:56:10.602Z,3.60
2018-11-21T10:58:39.807Z,3.60
2018-11-21T11:01:23.121Z,3.60
2018-11-21T11:04:03.857Z,3.60
2018-11-21T11:07:03.857Z,3.60
2018-11-21T11:09:54.349Z,3.60
2018-11-21T11:12:48.836Z,3.80
2018-11-21T11:15:43.008Z,3.80
2018-11-21T11:18:29.420Z,3.70
2018-11-21T11:21:20.545Z,3.80
2018-11-21T11:24:26.375Z,3.80
2018-11-21T11:27:29.130Z,3.70
2018-11-21T11:30:15.584Z,3.70
2018-11-21T11:33:05.867Z,3.90
2018-11-21T11:35:52.454Z,4.00
2018-11-21T11:38:45.909Z,4.10
2018-11-21T11:41:32.460Z,4.10
2018-11-21T11:44:18.889Z,4.10
2018-11-21T11:47:15.622Z,4.00
2018-11-21T11:50:09.071Z,4.00
2018-11-21T11:52:55.121Z,3.80
2018-11-21T11:55:31.289Z,3.60
2018-11-21T11:58:14.552Z,3.60
2018-11-21T12:01:17.296Z,3.50
2018-11-21T12:04:12.809Z,3.50
2018-11-21T12:07:00.469Z,3.60
2018-11-21T12:09:46.654Z,3.60
2018-11-21T12:12:40.300Z,3.70
2018-11-21T12:15:26.647Z,3.70
2018-11-21T12:18:04.729Z,3.60
2018-11-21T12:20:50.869Z,3.60
2018-11-21T12:23:50.536Z,3.60
2018-11-21T12:26:36.934Z,3.70
2018-11-21T12:29:23.387Z,3.60
2018-11-21T12:32:16.959Z,3.70
2018-11-21T12:35:03.491Z,3.60
2018-11-21T12:38:03.131Z,3.70
2018-11-21T12:40:40.219Z,3.60
2018-11-21T12:43:30.513Z,3.60
2018-11-21T12:46:16.771Z,3.60
2018-11-21T12:49:10.076Z,3.60
2018-11-21T12:51:56.183Z,3.60
2018-11-21T12:54:52.905Z,3.70
2018-11-21T12:57:40.497Z,3.80
2018-11-21T13:00:27.649Z,4.00
2018-11-21T13:03:03.693Z,4.10
2018-11-21T13:05:50.631Z,4.20
2018-11-21T13:08:38.270Z,4.30
2018-11-21T13:11:31.386Z,4.30
2018-11-21T13:14:16.267Z,4.10
2018-11-21T13:17:11.805Z,4.00
2018-11-21T13:19:58.146Z,3.90
2018-11-21T13:22:48.508Z,3.80
2018-11-21T13:25:42.209Z,3.70
2018-11-21T13:28:40.825Z,3.60
2018-11-21T13:31:34.289Z,3.60
2018-11-21T13:34:21.940Z,3.50
2018-11-21T13:37:03.346Z,3.50
2018-11-21T13:40:01.217Z,3.50
2018-11-21T13:42:39.955Z,3.40
2018-11-21T13:45:26.011Z,3.40
2018-11-21T13:48:10.899Z,3.50
2018-11-21T13:50:57.226Z,3.50
2018-11-21T13:53:50.680Z,3.40
2018-11-21T13:56:19.136Z,3.40
2018-11-21T13:58:47.671Z,3.30
2018-11-21T14:01:16.165Z,3.30
2018-11-21T14:03:44.673Z,3.20
2018-11-21T14:06:13.228Z,3.10
2018-11-21T14:08:41.745Z,3.00
2018-11-21T14:11:10.361Z,3.00
2018-11-21T14:13:38.953Z,3.00
2018-11-21T14:16:07.424Z,3.00
2018-11-21T14:18:36.035Z,2.90
2018-11-21T14:21:04.615Z,2.90
2018-11-21T14:23:33.166Z,2.90
2018-11-21T14:26:01.714Z,2.90
2018-11-21T14:28:30.245Z,2.80
2018-11-21T14:30:58.793Z,2.70
2018-11-21T14:33:27.359Z,2.70
2018-11-21T14:35:56.263Z,2.70
2018-11-21T14:38:24.646Z,2.70
2018-11-21T14:40:53.253Z,2.60
2018-11-21T14:43:21.862Z,2.60
2018-11-21T14:45:50.380Z,2.60
2018-11-21T14:48:18.911Z,2.60
2018-11-21T14:50:47.431Z,2.70
2018-11-21T14:53:15.961Z,2.70
2018-11-21T14:55:44.497Z,2.70
2018-11-21T14:58:12.983Z,2.70
2018-11-21T15:00:41.530Z,2.70
2018-11-21T15:03:10.052Z,2.70
2018-11-21T15:05:39.043Z,2.60
2018-11-21T15:08:07.607Z,2.60
2018-11-21T15:10:36.163Z,2.60
2018-11-21T15:13:05.067Z,2.60
2018-11-21T15:15:33.601Z,2.60
2018-11-21T15:18:02.119Z,2.60
2018-11-21T15:20:30.725Z,2.60
2018-11-21T15:22:59.430Z,2.60
2018-11-21T15:25:27.957Z,2.60
2018-11-21T15:27:56.480Z,2.60
2018-11-21T15:30:26.625Z,2.60
2018-11-21T15:32:55.147Z,2.50
2018-11-21T15:35:23.699Z,2.60
2018-11-21T15:37:52.449Z,2.50
2018-11-21T15:40:22.367Z,2.50
2018-11-21T15:42:50.923Z,2.50
2018-11-21T15:45:21.049Z,2.50
2018-11-21T15:47:54.616Z,2.50
2018-11-21T15:50:23.154Z,2.50
2018-11-21T15:52:53.137Z,2.50
2018-11-21T15:55:20.479Z,2.50
2018-11-21T15:57:49.172Z,2.50
2018-11-21T16:00:20.040Z,2.50
2018-11-21T16:02:49.673Z,2.40
2018-11-21T16:05:18.766Z,2.50
2018-11-21T16:07:47.581Z,2.40
2018-11-21T16:10:18.937Z,2.50
2018-11-21T16:12:46.319Z,2.50
2018-11-21T16:15:19.362Z,2.50
2018-11-21T16:17:47.785Z,2.60
2018-11-21T16:20:17.176Z,2.50
2018-11-21T16:22:45.778Z,2.50
2018-11-21T16:25:16.054Z,2.50
2018-11-21T16:27:45.325Z,2.40
2018-11-21T16:30:16.024Z,2.40
2018-11-21T16:32:44.796Z,2.40
2018-11-21T16:35:13.802Z,2.40
2018-11-21T16:37:42.734Z,2.40
2018-11-21T16:40:16.751Z,2.40
2018-11-21T16:42:45.286Z,2.50
2018-11-21T16:45:15.650Z,2.40
2018-11-21T16:47:44.908Z,2.40
2018-11-21T16:50:14.832Z,2.40
2018-11-21T16:52:43.352Z,2.40
2018-11-21T16:55:13.637Z,2.40
2018-11-21T16:57:42.388Z,2.40
2018-11-21T17:00:16.384Z,2.40
2018-11-21T17:02:44.938Z,2.40
2018-11-21T17:05:14.814Z,2.40
2018-11-21T17:07:43.720Z,2.40
2018-11-21T17:10:14.213Z,2.40
2018-11-21T17:12:43.742Z,2.40
2018-11-21T17:15:14.391Z,2.40
2018-11-21T17:17:43.063Z,2.40
2018-11-21T17:20:17.815Z,2.40
2018-11-21T17:22:47.597Z,2.40
2018-11-21T17:25:17.541Z,2.40
2018-11-21T17:27:46.282Z,2.50
2018-11-21T17:30:15.929Z,2.50
2018-11-21T17:32:44.548Z,2.50
2018-11-21T17:35:14.112Z,2.40
2018-11-21T17:37:42.718Z,2.30
2018-11-21T17:40:17.172Z,2.30
2018-11-21T17:42:45.920Z,2.30
2018-11-21T17:45:15.179Z,2.30
2018-11-21T17:47:43.716Z,2.30
2018-11-21T17:50:14.467Z,2.30
2018-11-21T17:52:43.366Z,2.30
2018-11-21T17:55:13.532Z,2.30
2018-11-21T17:57:42.142Z,2.30
2018-11-21T18:00:16.893Z,2.30
2018-11-21T18:02:45.480Z,2.40
2018-11-21T18:05:16.519Z,2.40
2018-11-21T18:07:45.141Z,2.40
2018-11-21T18:10:15.768Z,2.40
2018-11-21T18:12:44.997Z,2.40
2018-11-21T18:15:14.347Z,2.40
2018-11-21T18:17:43.979Z,2.40
2018-11-21T18:20:13.240Z,2.40
2018-11-21T18:22:44.208Z,2.40
2018-11-21T18:25:15.344Z,2.40
2018-11-21T18:27:46.173Z,2.40
2018-11-21T18:30:19.888Z,2.40
2018-11-21T18:32:48.630Z,2.40
2018-11-21T18:35:18.770Z,2.40
2018-11-21T18:37:48.420Z,2.40
2018-11-21T18:40:18.683Z,2.40
2018-11-21T18:42:47.818Z,2.40
2018-11-21T18:45:22.022Z,2.40
2018-11-21T18:47:51.135Z,2.40
2018-11-21T18:50:20.224Z,2.50
2018-11-21T18:52:51.644Z,2.40
2018-11-21T18:55:22.419Z,2.50
2018-11-21T18:58:45.229Z,2.40
2018-11-21T19:01:13.932Z,2.40
2018-11-21T19:03:42.586Z,2.50
2018-11-21T19:06:11.376Z,2.50
2018-11-21T19:08:40.111Z,2.40
2018-11-21T19:11:09.621Z,2.50
2018-11-21T19:13:38.931Z,2.50
2018-11-21T19:16:07.936Z,2.50
2018-11-21T19:18:36.572Z,2.50
2018-11-21T19:21:05.189Z,2.40
2018-11-21T19:23:33.796Z,2.50
2018-11-21T19:26:02.756Z,2.50
2018-11-21T19:28:31.435Z,2.60
2018-11-21T19:31:00.033Z,2.60
2018-11-21T19:33:28.750Z,2.70
2018-11-21T19:35:58.483Z,2.60
2018-11-21T19:38:27.132Z,2.60
2018-11-21T19:40:56.681Z,2.60
2018-11-21T19:43:25.778Z,2.50
2018-11-21T19:45:54.485Z,2.50
2018-11-21T19:48:24.697Z,2.50
2018-11-21T19:50:58.650Z,2.50
2018-11-21T19:53:30.381Z,2.50
2018-11-21T19:56:00.104Z,2.50
2018-11-21T19:58:39.441Z,2.50
2018-11-21T20:01:08.132Z,2.40
2018-11-21T20:03:37.210Z,2.40
2018-11-21T20:06:06.737Z,2.40
2018-11-21T20:08:35.798Z,2.40
2018-11-21T20:11:04.821Z,2.40
2018-11-21T20:13:35.904Z,2.30
2018-11-21T20:16:04.716Z,2.30
2018-11-21T20:18:33.732Z,2.30
2018-11-21T20:21:05.180Z,2.30
2018-11-21T20:23:33.967Z,2.30
2018-11-21T20:26:03.747Z,2.30
2018-11-21T20:28:32.392Z,2.30
2018-11-21T20:31:01.483Z,2.30
2018-11-21T20:33:30.351Z,2.30
2018-11-21T20:36:01.398Z,2.30
2018-11-21T20:38:31.264Z,2.30
2018-11-21T20:41:00.046Z,2.30
2018-11-21T20:43:28.711Z,2.30
2018-11-21T20:45:57.453Z,2.40
2018-11-21T20:48:26.216Z,2.30
2018-11-21T20:50:55.248Z,2.30
2018-11-21T20:53:26.565Z,2.30
2018-11-21T20:55:55.259Z,2.30
2018-11-21T20:58:23.869Z,2.30
2018-11-21T21:00:52.587Z,2.40
2018-11-21T21:03:21.923Z,2.40
2018-11-21T21:05:51.107Z,2.40
2018-11-21T21:08:19.731Z,2.40
2018-11-21T21:10:49.557Z,2.40
2018-11-21T21:13:18.248Z,2.30
2018-11-21T21:15:46.863Z,2.30
2018-11-21T21:18:15.546Z,2.30
2018-11-21T21:20:44.260Z,2.30
2018-11-21T21:23:16.144Z,2.30
2018-11-21T21:25:44.816Z,2.30
2018-11-21T21:28:13.821Z,2.30
2018-11-21T21:30:42.573Z,2.30
2018-11-21T21:33:11.310Z,2.30
2018-11-21T21:35:40.698Z,2.30
2018-11-21T21:38:09.372Z,2.30
2018-11-21T21:40:37.933Z,2.30
2018-11-21T21:43:06.826Z,2.30
2018-11-21T21:45:35.509Z,2.30
2018-11-21T21:48:05.367Z,2.30
2018-11-21T21:50:34.800Z,2.30
2018-11-21T21:53:03.410Z,2.30
